createdAt,value
2023-01-12T00:00:43.437Z,7.46
2023-01-12T00:03:12.232Z,7.40
2023-01-12T00:05:41.358Z,7.42
2023-01-12T00:08:10.098Z,7.42
2023-01-12T00:10:40.253Z,7.43
2023-01-12T00:13:09.312Z,7.50
2023-01-12T00:15:58.763Z,7.38
2023-01-12T00:18:27.669Z,7.36
2023-01-12T00:20:56.794Z,7.43
2023-01-12T00:23:30.842Z,7.47
2023-01-12T00:26:01.096Z,7.48
2023-01-12T00:28:29.959Z,7.40
2023-01-12T00:31:02.601Z,7.43
2023-01-12T00:33:31.402Z,7.36
2023-01-12T00:36:03.390Z,7.40
2023-01-12T00:38:32.081Z,7.50
2023-01-12T00:41:05.812Z,7.44
2023-01-12T00:43:48.471Z,7.41
2023-01-12T00:46:17.201Z,7.36
2023-01-12T00:48:45.971Z,7.56
2023-01-12T00:51:14.656Z,7.47
2023-01-12T00:53:43.321Z,7.47
2023-01-12T00:56:13.770Z,7.42
2023-01-12T00:58:42.597Z,7.52
2023-01-12T01:01:11.761Z,7.51
2023-01-12T01:03:40.917Z,7.67
2023-01-12T01:06:09.874Z,7.59
2023-01-12T01:08:39.082Z,7.59
2023-01-12T01:11:08.930Z,7.65
2023-01-12T01:13:40.949Z,7.63
2023-01-12T01:16:10.286Z,7.60
2023-01-12T01:18:39.541Z,7.64
2023-01-12T01:21:09.678Z,7.66
2023-01-12T01:23:38.976Z,7.59
2023-01-12T01:26:08.651Z,7.65
2023-01-12T01:28:38.861Z,7.62
2023-01-12T01:31:08.317Z,7.71
2023-01-12T01:33:37.526Z,7.68
2023-01-12T01:36:06.506Z,7.66
2023-01-12T01:38:35.469Z,7.61
2023-01-12T01:41:04.613Z,7.70
2023-01-12T01:43:52.537Z,7.68
2023-01-12T01:46:28.309Z,7.68
2023-01-12T01:48:57.111Z,7.69
2023-01-12T01:51:25.880Z,7.71
2023-01-12T01:53:54.971Z,7.73
2023-01-12T01:56:26.193Z,7.77
2023-01-12T01:58:57.493Z,7.88
2023-01-12T02:01:26.635Z,7.81
2023-01-12T02:03:55.454Z,7.72
2023-01-12T02:06:26.148Z,7.80
2023-01-12T02:08:57.866Z,7.85
2023-01-12T02:11:40.748Z,7.82
2023-01-12T02:14:25.873Z,7.83
2023-01-12T02:16:59.532Z,7.83
2023-01-12T02:19:39.621Z,7.96
2023-01-12T02:22:22.255Z,7.91
2023-01-12T02:25:03.827Z,7.96
2023-01-12T02:27:39.772Z,7.95
2023-01-12T02:30:28.291Z,7.92
2023-01-12T02:33:04.399Z,7.97
2023-01-12T02:35:36.200Z,7.95
2023-01-12T02:38:09.029Z,7.91
2023-01-12T02:40:41.089Z,8.03
2023-01-12T02:43:12.122Z,8.00
2023-01-12T02:45:43.951Z,7.98
2023-01-12T02:48:17.921Z,8.04
2023-01-12T02:50:49.555Z,7.96
2023-01-12T02:53:19.935Z,7.98
2023-01-12T02:55:49.039Z,8.04
2023-01-12T03:01:05.435Z,7.97
2023-01-12T03:03:39.898Z,8.00
2023-01-12T03:06:09.198Z,7.97
2023-01-12T03:08:38.922Z,7.93
2023-01-12T03:11:14.560Z,7.93
2023-01-12T03:13:46.227Z,7.92
2023-01-12T03:16:15.413Z,7.85
2023-01-12T03:18:47.286Z,7.84
2023-01-12T03:21:17.625Z,7.86
2023-01-12T03:23:47.989Z,7.78
2023-01-12T03:26:17.479Z,7.79
2023-01-12T03:28:48.170Z,7.76
2023-01-12T03:31:16.903Z,7.73
2023-01-12T03:33:47.403Z,7.83
2023-01-12T03:36:20.455Z,7.81
2023-01-12T03:38:57.632Z,7.80
2023-01-12T03:41:30.193Z,7.72
2023-01-12T03:44:00.835Z,7.76
2023-01-12T03:46:31.015Z,7.68
2023-01-12T03:49:03.410Z,7.67
2023-01-12T03:51:33.356Z,7.55
2023-01-12T03:54:02.434Z,7.57
2023-01-12T03:56:33.576Z,7.55
2023-01-12T03:59:02.350Z,7.57
2023-01-12T04:01:31.251Z,7.56
2023-01-12T04:04:01.572Z,7.50
2023-01-12T04:06:30.326Z,7.57
2023-01-12T04:08:59.073Z,7.48
2023-01-12T04:11:41.532Z,7.51
2023-01-12T04:14:10.649Z,7.65
2023-01-12T04:16:39.463Z,7.51
2023-01-12T04:19:09.623Z,7.55
2023-01-12T04:21:52.375Z,7.52
2023-01-12T04:24:21.122Z,7.50
2023-01-12T04:26:49.940Z,7.59
2023-01-12T04:29:19.002Z,7.57
2023-01-12T04:31:47.818Z,7.61
2023-01-12T04:34:17.996Z,7.66
2023-01-12T04:36:46.834Z,7.69
2023-01-12T04:39:15.675Z,7.57
2023-01-12T04:41:44.497Z,7.62
2023-01-12T04:44:13.604Z,7.60
2023-01-12T04:46:42.418Z,7.57
2023-01-12T04:49:11.298Z,7.48
2023-01-12T04:51:41.763Z,7.61
2023-01-12T04:54:11.175Z,7.68
2023-01-12T04:56:39.959Z,7.72
2023-01-12T04:59:10.843Z,7.58
2023-01-12T05:01:40.505Z,7.62
2023-01-12T05:04:09.990Z,7.52
2023-01-12T05:06:38.836Z,7.50
2023-01-12T05:09:24.321Z,7.47
2023-01-12T05:11:53.168Z,7.65
2023-01-12T05:14:22.300Z,7.58
2023-01-12T05:16:51.220Z,7.55
2023-01-12T05:19:20.038Z,7.56
2023-01-12T05:21:49.089Z,7.50
2023-01-12T05:24:19.422Z,7.54
2023-01-12T05:29:34.321Z,7.45
2023-01-12T05:32:03.169Z,7.45
2023-01-12T05:34:32.252Z,7.42
2023-01-12T05:37:01.203Z,7.45
2023-01-12T05:39:31.384Z,7.40
2023-01-12T05:42:14.113Z,7.33
2023-01-12T05:44:42.952Z,7.39
2023-01-12T05:47:11.718Z,7.36
2023-01-12T05:49:40.499Z,7.40
2023-01-12T05:52:09.218Z,7.36
2023-01-12T05:54:39.820Z,7.43
2023-01-12T05:57:08.594Z,7.38
2023-01-12T05:59:37.454Z,7.40
2023-01-12T06:02:06.273Z,7.34
2023-01-12T06:04:35.400Z,7.33
2023-01-12T06:07:04.215Z,7.38
2023-01-12T06:09:33.007Z,7.36
2023-01-12T06:12:17.122Z,7.38
2023-01-12T06:14:45.935Z,7.31
2023-01-12T06:17:14.736Z,7.39
2023-01-12T06:19:43.818Z,7.32
2023-01-12T06:22:16.630Z,7.32
2023-01-12T06:24:58.561Z,7.31
2023-01-12T06:27:37.221Z,7.32
2023-01-12T06:30:07.534Z,7.36
2023-01-12T06:32:37.382Z,7.27
2023-01-12T06:35:18.071Z,7.30
2023-01-12T06:37:47.629Z,7.27
2023-01-12T06:40:16.420Z,7.31
2023-01-12T06:42:46.572Z,7.35
2023-01-12T06:45:15.821Z,7.44
2023-01-12T06:47:47.419Z,7.26
2023-01-12T06:50:16.260Z,7.39
2023-01-12T06:52:45.074Z,7.28
2023-01-12T06:55:13.872Z,7.36
2023-01-12T06:57:42.993Z,7.37
2023-01-12T07:00:14.310Z,7.38
2023-01-12T07:02:43.102Z,7.29
2023-01-12T07:05:11.873Z,7.32
2023-01-12T07:07:41.135Z,7.31
2023-01-12T07:10:10.694Z,7.27
2023-01-12T07:12:39.523Z,7.39
2023-01-12T07:15:09.869Z,7.34
2023-01-12T07:17:40.281Z,7.34
2023-01-12T07:20:09.696Z,7.31
2023-01-12T07:22:39.702Z,7.36
2023-01-12T07:25:08.889Z,7.31
2023-01-12T07:27:38.387Z,7.36
2023-01-12T07:30:07.927Z,7.37
2023-01-12T07:32:37.061Z,7.31
2023-01-12T07:35:07.885Z,7.40
2023-01-12T07:37:37.097Z,7.38
2023-01-12T07:40:06.763Z,7.39
2023-01-12T07:42:38.357Z,7.41
2023-01-12T07:45:08.110Z,7.29
2023-01-12T07:47:37.263Z,7.38
2023-01-12T07:50:08.084Z,7.31
2023-01-12T07:52:36.857Z,7.37
2023-01-12T07:55:05.918Z,7.42
2023-01-12T07:57:36.916Z,7.42
2023-01-12T08:00:06.636Z,7.42
2023-01-12T08:02:35.420Z,7.43
2023-01-12T08:05:04.244Z,7.55
2023-01-12T08:07:34.855Z,7.49
2023-01-12T08:10:03.662Z,7.55
2023-01-12T08:12:32.491Z,7.62
2023-01-12T08:15:01.542Z,7.45
2023-01-12T08:17:31.635Z,7.53
2023-01-12T08:20:02.803Z,7.55
2023-01-12T08:22:34.657Z,7.55
2023-01-12T08:25:06.532Z,7.55
2023-01-12T08:27:35.457Z,7.62
2023-01-12T08:30:08.572Z,7.62
2023-01-12T08:32:37.827Z,7.66
2023-01-12T08:35:07.093Z,7.78
2023-01-12T08:37:37.841Z,7.83
2023-01-12T08:40:07.461Z,7.92
2023-01-12T08:42:36.264Z,7.88
2023-01-12T08:45:07.353Z,7.96
2023-01-12T08:47:37.791Z,7.97
2023-01-12T08:50:07.755Z,8.06
2023-01-12T08:52:38.206Z,8.15
2023-01-12T08:55:07.961Z,8.18
2023-01-12T08:57:36.732Z,8.15
2023-01-12T09:00:06.777Z,8.16
2023-01-12T09:02:35.717Z,8.28
2023-01-12T09:05:04.657Z,8.34
2023-01-12T09:07:34.306Z,8.34
2023-01-12T09:10:06.305Z,8.34
2023-01-12T09:12:35.151Z,8.27
2023-01-12T09:15:04.035Z,8.34
2023-01-12T09:17:32.864Z,8.42
2023-01-12T09:20:02.408Z,8.45
2023-01-12T09:22:31.227Z,8.45
2023-01-12T09:24:59.977Z,8.41
2023-01-12T09:27:31.157Z,8.52
2023-01-12T09:30:26.027Z,8.51
2023-01-12T09:32:57.422Z,8.38
2023-01-12T09:35:26.282Z,8.50
2023-01-12T09:37:55.540Z,8.60
2023-01-12T09:40:24.486Z,8.47
2023-01-12T09:43:08.593Z,8.68
2023-01-12T09:45:51.083Z,8.61
2023-01-12T09:48:21.600Z,8.69
2023-01-12T09:50:52.562Z,8.66
2023-01-12T09:53:22.288Z,8.62
2023-01-12T09:55:53.611Z,8.59
2023-01-12T09:58:31.960Z,8.73
2023-01-12T10:01:00.990Z,8.72
2023-01-12T10:03:31.497Z,8.65
2023-01-12T10:06:01.793Z,8.77
2023-01-12T10:08:33.600Z,8.71
2023-01-12T10:11:07.293Z,8.72
2023-01-12T10:13:48.244Z,8.78
2023-01-12T10:16:19.138Z,8.72
2023-01-12T10:18:48.177Z,8.73
2023-01-12T10:21:16.964Z,8.80
2023-01-12T10:23:45.757Z,8.90
2023-01-12T10:26:19.856Z,8.85
2023-01-12T10:28:50.112Z,8.97
2023-01-12T10:31:23.031Z,8.96
2023-01-12T10:34:08.162Z,8.92
2023-01-12T10:36:40.580Z,8.92
2023-01-12T10:39:27.365Z,8.89
2023-01-12T10:42:35.265Z,8.85
2023-01-12T10:45:18.686Z,8.89
2023-01-12T10:47:48.179Z,8.92
2023-01-12T10:50:23.769Z,8.85
2023-01-12T10:52:55.811Z,8.88
2023-01-12T10:55:24.838Z,8.95
2023-01-12T10:57:54.436Z,9.01
2023-01-12T11:00:26.392Z,9.12
2023-01-12T11:02:55.325Z,9.12
2023-01-12T11:05:32.081Z,9.14
2023-01-12T11:08:00.899Z,9.12
2023-01-12T11:10:30.684Z,9.06
2023-01-12T11:13:00.563Z,9.00
2023-01-12T11:15:31.336Z,9.01
2023-01-12T11:18:05.835Z,9.04
2023-01-12T11:20:38.338Z,9.05
2023-01-12T11:23:12.115Z,9.13
2023-01-12T11:25:42.047Z,9.19
2023-01-12T11:28:14.323Z,9.16
2023-01-12T11:30:46.691Z,9.15
2023-01-12T11:33:19.787Z,9.09
2023-01-12T11:35:51.366Z,9.07
2023-01-12T11:38:39.867Z,9.22
2023-01-12T11:41:10.399Z,9.18
2023-01-12T11:43:50.351Z,9.22
2023-01-12T11:46:25.237Z,9.19
2023-01-12T11:49:01.950Z,9.26
2023-01-12T11:51:30.807Z,9.18
2023-01-12T11:53:59.958Z,9.18
2023-01-12T11:56:48.998Z,9.23
2023-01-12T11:59:21.320Z,9.24
2023-01-12T12:01:55.844Z,9.24
2023-01-12T12:04:34.130Z,9.12
2023-01-12T12:07:08.957Z,9.04
2023-01-12T12:09:44.968Z,9.17
2023-01-12T12:12:21.479Z,9.21
2023-01-12T12:14:59.420Z,9.26
2023-01-12T12:17:36.305Z,9.23
2023-01-12T12:20:08.586Z,9.22
2023-01-12T12:22:47.908Z,9.22
2023-01-12T12:25:23.752Z,9.28
2023-01-12T12:28:00.298Z,9.33
2023-01-12T12:30:36.710Z,9.24
2023-01-12T12:33:10.608Z,9.29
2023-01-12T12:35:47.631Z,9.26
2023-01-12T12:38:24.979Z,9.27
2023-01-12T12:41:15.267Z,9.20
2023-01-12T12:43:57.720Z,9.34
2023-01-12T12:46:32.482Z,9.30
2023-01-12T12:49:06.362Z,9.21
2023-01-12T12:51:35.747Z,9.33
2023-01-12T12:54:06.812Z,9.32
2023-01-12T12:56:37.071Z,9.32
2023-01-12T12:59:06.287Z,9.26
2023-01-12T13:01:39.744Z,9.30
2023-01-12T13:04:10.902Z,9.31
2023-01-12T13:06:42.037Z,9.28
2023-01-12T13:09:37.273Z,9.33
2023-01-12T13:12:21.289Z,9.30
2023-01-12T13:15:19.379Z,9.33
2023-01-12T13:17:49.192Z,9.31
2023-01-12T13:20:39.596Z,9.39
2023-01-12T13:23:37.595Z,9.40
2023-01-12T13:26:32.699Z,9.34
2023-01-12T13:29:31.012Z,9.30
2023-01-12T13:32:00.867Z,9.33
2023-01-12T13:34:31.175Z,9.31
2023-01-12T13:37:11.064Z,9.47
2023-01-12T13:39:41.225Z,9.40
2023-01-12T13:42:27.242Z,9.47
2023-01-12T13:44:56.031Z,9.36
2023-01-12T13:47:27.070Z,9.40
2023-01-12T13:49:58.932Z,9.36
2023-01-12T13:52:32.200Z,9.37
2023-01-12T13:55:02.747Z,9.32
2023-01-12T13:57:36.518Z,9.32
2023-01-12T14:00:10.189Z,9.36
2023-01-12T14:02:39.514Z,9.28
2023-01-12T14:05:18.175Z,9.26
2023-01-12T14:08:15.122Z,9.28
2023-01-12T14:10:47.184Z,9.33
2023-01-12T14:13:29.866Z,9.37
2023-01-12T14:16:14.950Z,9.38
2023-01-12T14:18:44.571Z,9.32
2023-01-12T14:21:25.376Z,9.35
2023-01-12T14:23:55.849Z,9.37
2023-01-12T14:26:27.399Z,9.34
2023-01-12T14:28:56.223Z,9.36
2023-01-12T14:31:28.144Z,9.45
2023-01-12T14:33:58.825Z,9.52
2023-01-12T14:36:32.396Z,9.46
2023-01-12T14:39:02.740Z,9.43
2023-01-12T14:41:45.470Z,9.41
2023-01-12T14:44:31.753Z,9.44
2023-01-12T14:47:00.578Z,9.46
2023-01-12T14:49:58.980Z,9.45
2023-01-12T14:52:33.490Z,9.50
2023-01-12T14:55:17.927Z,9.37
2023-01-12T14:57:49.653Z,9.45
2023-01-12T15:00:22.127Z,9.39
2023-01-12T15:02:52.109Z,9.35
2023-01-12T15:05:22.998Z,9.35
2023-01-12T15:08:13.441Z,9.43
2023-01-12T15:10:44.503Z,9.35
2023-01-12T15:13:24.336Z,9.53
2023-01-12T15:16:06.926Z,9.41
2023-01-12T15:18:49.673Z,9.47
2023-01-12T15:21:32.097Z,9.32
2023-01-12T15:24:14.556Z,9.43
2023-01-12T15:26:51.083Z,9.40
2023-01-12T15:29:27.740Z,9.51
2023-01-12T15:31:57.217Z,9.50
2023-01-12T15:34:26.384Z,9.38
2023-01-12T15:36:55.529Z,9.49
2023-01-12T15:39:42.573Z,9.39
2023-01-12T15:42:18.499Z,9.43
2023-01-12T15:44:48.212Z,9.30
2023-01-12T15:47:17.798Z,9.29
2023-01-12T15:49:48.786Z,9.34
2023-01-12T15:52:21.404Z,9.31
2023-01-12T15:54:50.761Z,9.33
2023-01-12T15:57:20.983Z,9.41
2023-01-12T15:59:50.126Z,9.34
2023-01-12T16:02:28.161Z,9.26
2023-01-12T16:04:57.173Z,9.29
2023-01-12T16:07:26.029Z,9.32
2023-01-12T16:09:55.980Z,9.34
2023-01-12T16:12:26.400Z,9.30
2023-01-12T16:14:56.806Z,9.32
2023-01-12T16:17:25.839Z,9.42
2023-01-12T16:19:54.702Z,9.46
2023-01-12T16:22:25.532Z,9.42
2023-01-12T16:24:57.335Z,9.50
2023-01-12T16:27:30.519Z,9.44
2023-01-12T16:29:59.721Z,9.41
2023-01-12T16:32:28.823Z,9.43
2023-01-12T16:35:02.349Z,9.46
2023-01-12T16:37:33.540Z,9.32
2023-01-12T16:40:03.051Z,9.43
2023-01-12T16:45:19.060Z,9.37
2023-01-12T16:47:47.902Z,9.44
2023-01-12T16:50:16.779Z,9.41
2023-01-12T16:52:45.689Z,9.31
2023-01-12T16:55:14.487Z,9.21
2023-01-12T16:57:44.739Z,9.32
2023-01-12T17:00:20.396Z,9.27
2023-01-12T17:02:51.697Z,9.24
2023-01-12T17:05:20.727Z,9.28
2023-01-12T17:07:49.937Z,9.26
2023-01-12T17:10:19.313Z,9.41
2023-01-12T17:12:54.493Z,9.29
2023-01-12T17:15:29.470Z,9.31
2023-01-12T17:17:58.427Z,9.33
2023-01-12T17:20:28.484Z,9.29
2023-01-12T17:22:58.042Z,9.21
2023-01-12T17:25:27.953Z,9.26
2023-01-12T17:27:58.602Z,9.29
2023-01-12T17:33:14.026Z,9.24
2023-01-12T17:35:45.455Z,9.21
2023-01-12T17:38:16.078Z,9.17
2023-01-12T17:40:44.915Z,9.25
2023-01-12T17:43:15.915Z,9.17
2023-01-12T17:45:44.799Z,9.17
2023-01-12T17:48:13.664Z,9.27
2023-01-12T17:50:42.762Z,9.19
2023-01-12T17:53:11.929Z,9.12
2023-01-12T17:55:48.221Z,9.08
2023-01-12T17:58:19.389Z,9.09
2023-01-12T18:00:48.647Z,9.14
2023-01-12T18:03:17.570Z,9.11
2023-01-12T18:05:49.979Z,9.19
2023-01-12T18:08:22.333Z,9.19
2023-01-12T18:10:53.095Z,9.22
2023-01-12T18:13:24.235Z,9.28
2023-01-12T18:15:53.136Z,9.34
2023-01-12T18:18:22.013Z,9.24
2023-01-12T18:20:52.875Z,9.31
2023-01-12T18:23:21.679Z,9.26
2023-01-12T18:25:50.567Z,9.27
2023-01-12T18:28:19.444Z,9.22
2023-01-12T18:30:49.855Z,9.30
2023-01-12T18:33:18.726Z,9.28
2023-01-12T18:35:47.934Z,9.22
2023-01-12T18:38:16.779Z,9.24
2023-01-12T18:41:06.307Z,9.28
2023-01-12T18:43:35.412Z,9.21
2023-01-12T18:46:08.592Z,9.18
2023-01-12T18:48:36.419Z,9.24
2023-01-12T18:51:19.508Z,9.22
2023-01-12T18:53:48.265Z,9.30
2023-01-12T18:56:17.091Z,9.19
2023-01-12T18:58:46.322Z,9.14
2023-01-12T19:01:21.296Z,9.28
2023-01-12T19:03:50.452Z,9.26
2023-01-12T19:06:28.020Z,9.22
2023-01-12T19:09:12.829Z,9.24
2023-01-12T19:11:42.299Z,9.16
2023-01-12T19:14:24.996Z,9.23
2023-01-12T19:17:09.135Z,9.23
2023-01-12T19:19:38.220Z,9.23
2023-01-12T19:22:20.915Z,9.12
2023-01-12T19:25:03.649Z,9.14
2023-01-12T19:27:46.184Z,9.13
2023-01-12T19:30:15.136Z,9.13
2023-01-12T19:32:45.655Z,9.13
2023-01-12T19:35:14.545Z,9.17
2023-01-12T19:37:47.749Z,9.27
2023-01-12T19:40:23.421Z,9.23
2023-01-12T19:43:05.869Z,9.26
2023-01-12T19:45:34.732Z,9.26
2023-01-12T19:48:05.502Z,9.23
2023-01-12T19:50:34.439Z,9.19
2023-01-12T19:53:03.817Z,9.25
2023-01-12T19:55:32.807Z,9.25
2023-01-12T19:58:01.764Z,9.19
2023-01-12T20:00:32.523Z,9.32
2023-01-12T20:03:01.699Z,9.33
2023-01-12T20:05:31.965Z,9.41
2023-01-12T20:08:00.822Z,9.37
2023-01-12T20:10:31.023Z,9.29
2023-01-12T20:13:01.881Z,9.28
2023-01-12T20:15:31.091Z,9.25
2023-01-12T20:18:01.533Z,9.29
2023-01-12T20:20:31.857Z,9.22
2023-01-12T20:23:00.645Z,9.31
2023-01-12T20:25:29.988Z,9.34
2023-01-12T20:27:59.190Z,9.39
2023-01-12T20:30:43.220Z,9.30
2023-01-12T20:33:12.192Z,9.25
2023-01-12T20:35:45.180Z,9.27
2023-01-12T20:38:16.636Z,9.21
2023-01-12T20:40:45.574Z,9.25
2023-01-12T20:43:14.355Z,9.21
2023-01-12T20:45:44.375Z,9.29
2023-01-12T20:48:15.092Z,9.31
2023-01-12T20:50:45.916Z,9.14
2023-01-12T20:53:15.188Z,9.17
2023-01-12T20:55:45.246Z,9.17
2023-01-12T20:58:14.538Z,9.23
2023-01-12T21:00:43.703Z,9.17
2023-01-12T21:03:12.649Z,9.11
2023-01-12T21:05:44.705Z,9.14
2023-01-12T21:08:13.697Z,9.25
2023-01-12T21:10:43.079Z,9.17
2023-01-12T21:13:12.301Z,9.25
2023-01-12T21:15:41.627Z,9.20
2023-01-12T21:18:10.399Z,9.27
2023-01-12T21:20:45.299Z,9.15
2023-01-12T21:23:15.870Z,9.14
2023-01-12T21:25:44.908Z,9.06
2023-01-12T21:28:14.655Z,9.16
2023-01-12T21:30:43.435Z,9.18
2023-01-12T21:33:12.244Z,9.09
2023-01-12T21:35:41.448Z,9.01
2023-01-12T21:38:10.513Z,9.18
2023-01-12T21:40:42.002Z,9.10
2023-01-12T21:43:12.539Z,9.22
2023-01-12T21:45:42.747Z,9.12
2023-01-12T21:48:12.003Z,9.19
2023-01-12T21:50:41.031Z,9.19
2023-01-12T21:53:13.588Z,9.10
2023-01-12T21:55:43.963Z,9.17
2023-01-12T21:58:12.752Z,9.01
2023-01-12T22:00:41.538Z,9.11
2023-01-12T22:03:10.342Z,9.11
2023-01-12T22:05:39.177Z,9.10
2023-01-12T22:08:10.736Z,9.08
2023-01-12T22:10:39.567Z,9.18
2023-01-12T22:13:14.634Z,9.16
2023-01-12T22:15:43.557Z,9.14
2023-01-12T22:18:12.315Z,9.14
2023-01-12T22:20:42.111Z,9.23
2023-01-12T22:23:13.615Z,9.25
2023-01-12T22:25:45.579Z,9.26
2023-01-12T22:28:15.764Z,9.24
2023-01-12T22:30:45.215Z,9.25
2023-01-12T22:33:14.016Z,9.28
2023-01-12T22:35:42.827Z,9.25
2023-01-12T22:38:12.068Z,9.29
2023-01-12T22:40:41.092Z,9.29
2023-01-12T22:43:24.197Z,9.30
2023-01-12T22:45:56.176Z,9.35
2023-01-12T22:48:25.241Z,9.33
2023-01-12T22:50:54.991Z,9.39
2023-01-12T22:53:24.588Z,9.38
2023-01-12T22:55:53.428Z,9.38
2023-01-12T22:58:22.228Z,9.37
2023-01-12T23:00:52.297Z,9.35
2023-01-12T23:03:22.911Z,9.34
2023-01-12T23:05:56.283Z,9.45
2023-01-12T23:08:25.358Z,9.47
2023-01-12T23:10:54.275Z,9.39
2023-01-12T23:13:24.442Z,9.38
2023-01-12T23:15:56.851Z,9.33
2023-01-12T23:18:29.513Z,9.39
2023-01-12T23:21:02.315Z,9.46
2023-01-12T23:23:32.242Z,9.32
2023-01-12T23:26:03.838Z,9.46
2023-01-12T23:28:36.766Z,9.34
2023-01-12T23:31:06.707Z,9.48
2023-01-12T23:33:37.344Z,9.48
2023-01-12T23:36:07.118Z,9.44
2023-01-12T23:38:36.211Z,9.41
2023-01-12T23:41:12.197Z,9.51
2023-01-12T23:43:41.027Z,9.38
2023-01-12T23:46:09.874Z,9.46
2023-01-12T23:48:40.145Z,9.37
2023-01-12T23:51:08.940Z,9.40
2023-01-12T23:53:37.760Z,9.37
2023-01-12T23:56:07.060Z,9.44
2023-01-12T23:58:37.344Z,9.46
